sensor_id;sensor_type;location;lat;lon;timestamp;P1;durP1;ratioP1;P2;durP2;ratioP2
57297;SDS011;43147;50.972;18.210;2023-05-10T00:01:09;10.60;;;4.60;;
57297;SDS011;43147;50.972;18.210;2023-05-10T00:03:37;9.80;;;4.90;;
57297;SDS011;43147;50.972;18.210;2023-05-10T00:06:02;7.70;;;4.40;;
57297;SDS011;43147;50.972;18.210;2023-05-10T00:08:28;8.80;;;4.90;;
57297;SDS011;43147;50.972;18.210;2023-05-10T00:10:53;8.70;;;4.50;;
57297;SDS011;43147;50.972;18.210;2023-05-10T00:13:19;7.80;;;4.50;;
57297;SDS011;43147;50.972;18.210;2023-05-10T00:15:44;6.60;;;4.60;;
57297;SDS011;43147;50.972;18.210;2023-05-10T00:18:10;5.50;;;4.00;;
57297;SDS011;43147;50.972;18.210;2023-05-10T00:20:38;10.10;;;5.80;;
57297;SDS011;43147;50.972;18.210;2023-05-10T00:23:04;9.50;;;5.40;;
57297;SDS011;43147;50.972;18.210;2023-05-10T00:25:29;9.40;;;4.40;;
57297;SDS011;43147;50.972;18.210;2023-05-10T00:27:55;8.20;;;4.70;;
57297;SDS011;43147;50.972;18.210;2023-05-10T00:30:22;8.80;;;4.60;;
57297;SDS011;43147;50.972;18.210;2023-05-10T00:32:51;8.50;;;4.40;;
57297;SDS011;43147;50.972;18.210;2023-05-10T00:35:17;8.30;;;4.50;;
57297;SDS011;43147;50.972;18.210;2023-05-10T00:37:42;6.90;;;4.20;;
57297;SDS011;43147;50.972;18.210;2023-05-10T00:40:08;9.80;;;5.30;;
57297;SDS011;43147;50.972;18.210;2023-05-10T00:42:34;8.10;;;5.50;;
57297;SDS011;43147;50.972;18.210;2023-05-10T00:44:59;11.30;;;5.90;;
57297;SDS011;43147;50.972;18.210;2023-05-10T00:47:25;7.00;;;4.40;;
57297;SDS011;43147;50.972;18.210;2023-05-10T00:49:51;9.40;;;4.90;;
57297;SDS011;43147;50.972;18.210;2023-05-10T00:52:17;8.70;;;4.70;;
57297;SDS011;43147;50.972;18.210;2023-05-10T00:54:42;9.50;;;4.90;;
57297;SDS011;43147;50.972;18.210;2023-05-10T00:57:08;7.90;;;4.80;;
57297;SDS011;43147;50.972;18.210;2023-05-10T00:59:34;6.90;;;4.40;;
57297;SDS011;43147;50.972;18.210;2023-05-10T01:02:00;7.20;;;4.20;;
57297;SDS011;43147;50.972;18.210;2023-05-10T01:04:25;11.40;;;5.10;;
57297;SDS011;43147;50.972;18.210;2023-05-10T01:06:53;5.70;;;4.10;;
57297;SDS011;43147;50.972;18.210;2023-05-10T01:09:19;9.10;;;4.90;;
57297;SDS011;43147;50.972;18.210;2023-05-10T01:11:48;12.00;;;5.20;;
57297;SDS011;43147;50.972;18.210;2023-05-10T01:14:14;12.70;;;4.80;;
57297;SDS011;43147;50.972;18.210;2023-05-10T01:16:40;7.70;;;4.00;;
57297;SDS011;43147;50.972;18.210;2023-05-10T01:19:09;9.90;;;4.60;;
57297;SDS011;43147;50.972;18.210;2023-05-10T01:22:03;6.90;;;4.10;;
57297;SDS011;43147;50.972;18.210;2023-05-10T01:24:40;8.00;;;4.30;;
57297;SDS011;43147;50.972;18.210;2023-05-10T01:30:01;7.00;;;4.20;;
57297;SDS011;43147;50.972;18.210;2023-05-10T01:33:01;10.80;;;4.00;;
57297;SDS011;43147;50.972;18.210;2023-05-10T01:41:33;10.00;;;5.00;;
57297;SDS011;43147;50.972;18.210;2023-05-10T01:46:56;9.80;;;5.00;;
57297;SDS011;43147;50.972;18.210;2023-05-10T01:49:26;9.60;;;5.00;;
57297;SDS011;43147;50.972;18.210;2023-05-10T01:51:59;6.00;;;3.90;;
57297;SDS011;43147;50.972;18.210;2023-05-10T01:54:27;9.90;;;4.40;;
57297;SDS011;43147;50.972;18.210;2023-05-10T01:56:58;7.60;;;3.70;;
57297;SDS011;43147;50.972;18.210;2023-05-10T01:59:33;8.80;;;4.40;;
57297;SDS011;43147;50.972;18.210;2023-05-10T02:02:05;8.50;;;4.30;;
57297;SDS011;43147;50.972;18.210;2023-05-10T02:04:33;11.10;;;4.40;;
57297;SDS011;43147;50.972;18.210;2023-05-10T02:07:00;9.40;;;4.70;;
57297;SDS011;43147;50.972;18.210;2023-05-10T02:09:26;11.40;;;4.10;;
57297;SDS011;43147;50.972;18.210;2023-05-10T02:11:52;9.10;;;5.20;;
57297;SDS011;43147;50.972;18.210;2023-05-10T02:14:19;10.00;;;4.80;;
57297;SDS011;43147;50.972;18.210;2023-05-10T02:16:45;18.10;;;4.80;;
57297;SDS011;43147;50.972;18.210;2023-05-10T02:19:11;10.20;;;4.90;;
57297;SDS011;43147;50.972;18.210;2023-05-10T02:21:38;7.60;;;4.40;;
57297;SDS011;43147;50.972;18.210;2023-05-10T02:24:05;8.80;;;4.20;;
57297;SDS011;43147;50.972;18.210;2023-05-10T02:26:31;9.40;;;4.60;;
57297;SDS011;43147;50.972;18.210;2023-05-10T02:28:57;7.80;;;4.40;;
57297;SDS011;43147;50.972;18.210;2023-05-10T02:31:24;6.80;;;4.00;;
57297;SDS011;43147;50.972;18.210;2023-05-10T02:33:51;10.70;;;4.50;;
57297;SDS011;43147;50.972;18.210;2023-05-10T02:36:16;8.90;;;4.50;;
57297;SDS011;43147;50.972;18.210;2023-05-10T02:38:44;9.10;;;4.50;;
57297;SDS011;43147;50.972;18.210;2023-05-10T02:41:10;9.30;;;4.70;;
57297;SDS011;43147;50.972;18.210;2023-05-10T02:43:36;6.90;;;4.60;;
57297;SDS011;43147;50.972;18.210;2023-05-10T02:46:03;6.90;;;4.40;;
57297;SDS011;43147;50.972;18.210;2023-05-10T02:48:29;5.90;;;4.10;;
57297;SDS011;43147;50.972;18.210;2023-05-10T02:50:55;7.30;;;4.60;;
57297;SDS011;43147;50.972;18.210;2023-05-10T02:53:28;5.60;;;4.20;;
57297;SDS011;43147;50.972;18.210;2023-05-10T02:55:58;9.20;;;5.10;;
57297;SDS011;43147;50.972;18.210;2023-05-10T02:58:26;8.80;;;4.50;;
57297;SDS011;43147;50.972;18.210;2023-05-10T03:00:52;8.00;;;4.00;;
57297;SDS011;43147;50.972;18.210;2023-05-10T03:03:17;7.20;;;4.90;;
57297;SDS011;43147;50.972;18.210;2023-05-10T03:05:43;9.70;;;4.70;;
57297;SDS011;43147;50.972;18.210;2023-05-10T03:08:09;10.80;;;4.60;;
57297;SDS011;43147;50.972;18.210;2023-05-10T03:10:42;9.90;;;5.30;;
57297;SDS011;43147;50.972;18.210;2023-05-10T03:13:36;9.60;;;5.00;;
57297;SDS011;43147;50.972;18.210;2023-05-10T03:16:16;15.00;;;4.90;;
57297;SDS011;43147;50.972;18.210;2023-05-10T03:19:05;5.70;;;3.80;;
57297;SDS011;43147;50.972;18.210;2023-05-10T03:21:33;8.40;;;3.90;;
57297;SDS011;43147;50.972;18.210;2023-05-10T03:24:10;6.80;;;4.30;;
57297;SDS011;43147;50.972;18.210;2023-05-10T03:26:37;8.20;;;3.90;;
57297;SDS011;43147;50.972;18.210;2023-05-10T03:29:04;6.90;;;4.30;;
57297;SDS011;43147;50.972;18.210;2023-05-10T03:31:30;10.00;;;4.30;;
57297;SDS011;43147;50.972;18.210;2023-05-10T03:33:56;12.90;;;4.90;;
57297;SDS011;43147;50.972;18.210;2023-05-10T03:36:21;7.80;;;4.40;;
57297;SDS011;43147;50.972;18.210;2023-05-10T03:38:47;9.60;;;5.10;;
57297;SDS011;43147;50.972;18.210;2023-05-10T03:41:13;11.40;;;4.60;;
57297;SDS011;43147;50.972;18.210;2023-05-10T03:43:39;10.10;;;4.10;;
57297;SDS011;43147;50.972;18.210;2023-05-10T03:46:05;8.20;;;4.40;;
57297;SDS011;43147;50.972;18.210;2023-05-10T03:48:31;11.90;;;4.90;;
57297;SDS011;43147;50.972;18.210;2023-05-10T03:50:57;7.70;;;4.00;;
57297;SDS011;43147;50.972;18.210;2023-05-10T03:53:23;9.20;;;4.20;;
57297;SDS011;43147;50.972;18.210;2023-05-10T03:55:49;6.90;;;3.70;;
57297;SDS011;43147;50.972;18.210;2023-05-10T03:58:15;10.40;;;4.20;;
57297;SDS011;43147;50.972;18.210;2023-05-10T04:00:40;4.20;;;3.40;;
57297;SDS011;43147;50.972;18.210;2023-05-10T04:03:09;17.70;;;4.40;;
57297;SDS011;43147;50.972;18.210;2023-05-10T04:05:35;7.10;;;4.00;;
57297;SDS011;43147;50.972;18.210;2023-05-10T04:08:01;10.30;;;4.60;;
57297;SDS011;43147;50.972;18.210;2023-05-10T04:10:28;5.00;;;4.50;;
57297;SDS011;43147;50.972;18.210;2023-05-10T04:12:53;8.90;;;4.60;;
57297;SDS011;43147;50.972;18.210;2023-05-10T04:15:20;5.70;;;4.10;;
57297;SDS011;43147;50.972;18.210;2023-05-10T04:17:45;7.40;;;4.40;;
57297;SDS011;43147;50.972;18.210;2023-05-10T04:20:11;6.70;;;4.00;;
57297;SDS011;43147;50.972;18.210;2023-05-10T04:22:37;9.60;;;4.40;;
57297;SDS011;43147;50.972;18.210;2023-05-10T04:25:04;7.00;;;3.60;;
57297;SDS011;43147;50.972;18.210;2023-05-10T04:27:30;9.90;;;4.10;;
57297;SDS011;43147;50.972;18.210;2023-05-10T04:29:56;6.30;;;4.60;;
57297;SDS011;43147;50.972;18.210;2023-05-10T04:32:22;6.60;;;4.10;;
57297;SDS011;43147;50.972;18.210;2023-05-10T04:34:48;8.50;;;4.50;;
57297;SDS011;43147;50.972;18.210;2023-05-10T04:37:14;9.80;;;3.90;;
57297;SDS011;43147;50.972;18.210;2023-05-10T04:39:40;5.90;;;3.70;;
57297;SDS011;43147;50.972;18.210;2023-05-10T04:42:05;7.90;;;4.40;;
57297;SDS011;43147;50.972;18.210;2023-05-10T04:44:31;9.30;;;3.80;;
57297;SDS011;43147;50.972;18.210;2023-05-10T04:46:58;11.00;;;4.50;;
57297;SDS011;43147;50.972;18.210;2023-05-10T04:49:24;6.70;;;4.00;;
57297;SDS011;43147;50.972;18.210;2023-05-10T04:51:49;9.00;;;4.20;;
57297;SDS011;43147;50.972;18.210;2023-05-10T04:54:15;10.80;;;3.80;;
57297;SDS011;43147;50.972;18.210;2023-05-10T04:56:41;5.80;;;3.80;;
57297;SDS011;43147;50.972;18.210;2023-05-10T04:59:06;6.60;;;4.10;;
57297;SDS011;43147;50.972;18.210;2023-05-10T05:01:32;8.80;;;4.70;;
57297;SDS011;43147;50.972;18.210;2023-05-10T05:03:58;10.20;;;4.50;;
57297;SDS011;43147;50.972;18.210;2023-05-10T05:06:24;10.80;;;4.60;;
57297;SDS011;43147;50.972;18.210;2023-05-10T05:08:51;9.40;;;4.70;;
57297;SDS011;43147;50.972;18.210;2023-05-10T05:11:17;5.00;;;4.00;;
57297;SDS011;43147;50.972;18.210;2023-05-10T05:13:42;8.20;;;5.20;;
57297;SDS011;43147;50.972;18.210;2023-05-10T05:16:08;7.90;;;5.20;;
57297;SDS011;43147;50.972;18.210;2023-05-10T05:18:34;10.40;;;5.30;;
57297;SDS011;43147;50.972;18.210;2023-05-10T05:20:59;10.30;;;4.90;;
57297;SDS011;43147;50.972;18.210;2023-05-10T05:23:26;6.00;;;4.40;;
57297;SDS011;43147;50.972;18.210;2023-05-10T05:25:52;7.10;;;4.50;;
57297;SDS011;43147;50.972;18.210;2023-05-10T05:28:21;6.60;;;5.10;;
57297;SDS011;43147;50.972;18.210;2023-05-10T05:30:47;8.10;;;4.20;;
57297;SDS011;43147;50.972;18.210;2023-05-10T05:33:15;9.30;;;4.40;;
57297;SDS011;43147;50.972;18.210;2023-05-10T05:35:41;5.50;;;4.20;;
57297;SDS011;43147;50.972;18.210;2023-05-10T05:38:10;7.20;;;3.70;;
57297;SDS011;43147;50.972;18.210;2023-05-10T05:40:35;7.30;;;3.80;;
57297;SDS011;43147;50.972;18.210;2023-05-10T05:43:01;4.30;;;3.70;;
57297;SDS011;43147;50.972;18.210;2023-05-10T05:45:27;4.20;;;3.30;;
57297;SDS011;43147;50.972;18.210;2023-05-10T05:47:52;3.60;;;3.20;;
57297;SDS011;43147;50.972;18.210;2023-05-10T05:50:18;3.90;;;3.20;;
57297;SDS011;43147;50.972;18.210;2023-05-10T05:52:43;6.80;;;3.70;;
57297;SDS011;43147;50.972;18.210;2023-05-10T05:55:09;4.80;;;3.50;;
57297;SDS011;43147;50.972;18.210;2023-05-10T05:57:35;3.90;;;3.10;;
57297;SDS011;43147;50.972;18.210;2023-05-10T06:00:00;5.80;;;3.00;;
57297;SDS011;43147;50.972;18.210;2023-05-10T06:02:26;4.90;;;3.80;;
57297;SDS011;43147;50.972;18.210;2023-05-10T06:04:52;6.00;;;3.80;;
57297;SDS011;43147;50.972;18.210;2023-05-10T06:07:17;5.40;;;3.10;;
57297;SDS011;43147;50.972;18.210;2023-05-10T06:09:43;5.10;;;3.30;;
57297;SDS011;43147;50.972;18.210;2023-05-10T06:12:08;4.50;;;3.30;;
57297;SDS011;43147;50.972;18.210;2023-05-10T06:14:34;3.40;;;2.80;;
57297;SDS011;43147;50.972;18.210;2023-05-10T06:16:59;5.00;;;2.90;;
57297;SDS011;43147;50.972;18.210;2023-05-10T06:19:25;4.00;;;3.20;;
57297;SDS011;43147;50.972;18.210;2023-05-10T06:21:51;6.50;;;3.30;;
57297;SDS011;43147;50.972;18.210;2023-05-10T06:24:17;6.60;;;2.70;;
57297;SDS011;43147;50.972;18.210;2023-05-10T06:26:43;2.90;;;2.70;;
57297;SDS011;43147;50.972;18.210;2023-05-10T06:29:08;6.70;;;2.80;;
57297;SDS011;43147;50.972;18.210;2023-05-10T06:31:34;5.10;;;3.00;;
57297;SDS011;43147;50.972;18.210;2023-05-10T06:34:00;5.00;;;2.80;;
57297;SDS011;43147;50.972;18.210;2023-05-10T06:36:26;6.50;;;2.40;;
57297;SDS011;43147;50.972;18.210;2023-05-10T06:38:52;4.30;;;2.50;;
57297;SDS011;43147;50.972;18.210;2023-05-10T06:41:18;7.80;;;2.30;;
57297;SDS011;43147;50.972;18.210;2023-05-10T06:43:43;4.20;;;2.60;;
57297;SDS011;43147;50.972;18.210;2023-05-10T06:46:09;4.00;;;2.40;;
57297;SDS011;43147;50.972;18.210;2023-05-10T06:48:35;4.50;;;1.90;;
57297;SDS011;43147;50.972;18.210;2023-05-10T06:51:03;3.10;;;2.30;;
57297;SDS011;43147;50.972;18.210;2023-05-10T06:53:31;3.80;;;2.20;;
57297;SDS011;43147;50.972;18.210;2023-05-10T06:55:57;3.90;;;2.50;;
57297;SDS011;43147;50.972;18.210;2023-05-10T06:58:23;4.70;;;2.10;;
57297;SDS011;43147;50.972;18.210;2023-05-10T07:00:48;6.40;;;2.20;;
57297;SDS011;43147;50.972;18.210;2023-05-10T07:03:14;3.00;;;2.20;;
57297;SDS011;43147;50.972;18.210;2023-05-10T07:05:40;7.10;;;2.30;;
57297;SDS011;43147;50.972;18.210;2023-05-10T07:08:06;3.90;;;2.30;;
57297;SDS011;43147;50.972;18.210;2023-05-10T07:10:32;3.70;;;2.30;;
57297;SDS011;43147;50.972;18.210;2023-05-10T07:12:58;4.90;;;2.30;;
57297;SDS011;43147;50.972;18.210;2023-05-10T07:15:24;4.90;;;2.60;;
57297;SDS011;43147;50.972;18.210;2023-05-10T07:17:49;2.60;;;2.40;;
57297;SDS011;43147;50.972;18.210;2023-05-10T07:20:17;2.50;;;2.00;;
57297;SDS011;43147;50.972;18.210;2023-05-10T07:22:45;4.50;;;2.10;;
57297;SDS011;43147;50.972;18.210;2023-05-10T07:25:11;4.50;;;2.30;;
57297;SDS011;43147;50.972;18.210;2023-05-10T07:27:37;3.10;;;1.90;;
57297;SDS011;43147;50.972;18.210;2023-05-10T07:30:02;3.90;;;2.90;;
57297;SDS011;43147;50.972;18.210;2023-05-10T07:32:28;4.20;;;2.40;;
57297;SDS011;43147;50.972;18.210;2023-05-10T07:34:54;3.20;;;2.40;;
57297;SDS011;43147;50.972;18.210;2023-05-10T07:37:20;4.90;;;2.70;;
57297;SDS011;43147;50.972;18.210;2023-05-10T07:39:46;3.20;;;2.40;;
57297;SDS011;43147;50.972;18.210;2023-05-10T07:42:11;6.40;;;3.00;;
57297;SDS011;43147;50.972;18.210;2023-05-10T07:44:37;7.70;;;2.50;;
57297;SDS011;43147;50.972;18.210;2023-05-10T07:47:02;6.10;;;2.70;;
57297;SDS011;43147;50.972;18.210;2023-05-10T07:49:28;3.70;;;2.70;;
57297;SDS011;43147;50.972;18.210;2023-05-10T07:51:54;6.70;;;3.30;;
57297;SDS011;43147;50.972;18.210;2023-05-10T07:54:19;4.10;;;2.90;;
57297;SDS011;43147;50.972;18.210;2023-05-10T07:56:45;5.10;;;2.40;;
57297;SDS011;43147;50.972;18.210;2023-05-10T07:59:16;9.70;;;2.20;;
57297;SDS011;43147;50.972;18.210;2023-05-10T08:01:42;2.50;;;2.20;;
57297;SDS011;43147;50.972;18.210;2023-05-10T08:04:08;3.50;;;1.90;;
57297;SDS011;43147;50.972;18.210;2023-05-10T08:06:34;5.70;;;2.20;;
57297;SDS011;43147;50.972;18.210;2023-05-10T08:08:59;2.40;;;2.00;;
57297;SDS011;43147;50.972;18.210;2023-05-10T08:11:25;3.50;;;2.20;;
57297;SDS011;43147;50.972;18.210;2023-05-10T08:13:51;4.20;;;2.10;;
57297;SDS011;43147;50.972;18.210;2023-05-10T08:16:17;3.60;;;2.30;;
57297;SDS011;43147;50.972;18.210;2023-05-10T08:18:43;3.30;;;2.50;;
57297;SDS011;43147;50.972;18.210;2023-05-10T08:21:10;5.40;;;2.30;;
57297;SDS011;43147;50.972;18.210;2023-05-10T08:23:36;6.00;;;2.60;;
57297;SDS011;43147;50.972;18.210;2023-05-10T08:26:02;4.30;;;2.70;;
57297;SDS011;43147;50.972;18.210;2023-05-10T08:28:28;2.60;;;2.30;;
57297;SDS011;43147;50.972;18.210;2023-05-10T08:30:53;6.00;;;2.50;;
57297;SDS011;43147;50.972;18.210;2023-05-10T08:33:20;3.10;;;2.50;;
57297;SDS011;43147;50.972;18.210;2023-05-10T08:35:45;4.60;;;2.50;;
57297;SDS011;43147;50.972;18.210;2023-05-10T08:38:11;4.90;;;2.50;;
57297;SDS011;43147;50.972;18.210;2023-05-10T08:40:38;3.70;;;2.60;;
57297;SDS011;43147;50.972;18.210;2023-05-10T08:43:08;2.50;;;2.00;;
57297;SDS011;43147;50.972;18.210;2023-05-10T08:45:39;4.00;;;1.90;;
57297;SDS011;43147;50.972;18.210;2023-05-10T08:48:06;6.00;;;2.10;;
57297;SDS011;43147;50.972;18.210;2023-05-10T08:50:35;8.10;;;2.80;;
57297;SDS011;43147;50.972;18.210;2023-05-10T08:53:04;3.60;;;2.70;;
57297;SDS011;43147;50.972;18.210;2023-05-10T08:55:31;4.50;;;2.50;;
57297;SDS011;43147;50.972;18.210;2023-05-10T08:57:59;3.90;;;2.50;;
57297;SDS011;43147;50.972;18.210;2023-05-10T09:00:25;4.20;;;2.50;;
57297;SDS011;43147;50.972;18.210;2023-05-10T09:02:51;5.00;;;3.20;;
57297;SDS011;43147;50.972;18.210;2023-05-10T09:05:17;3.90;;;3.00;;
57297;SDS011;43147;50.972;18.210;2023-05-10T09:07:43;4.00;;;2.50;;
57297;SDS011;43147;50.972;18.210;2023-05-10T09:10:10;3.80;;;2.70;;
57297;SDS011;43147;50.972;18.210;2023-05-10T09:12:37;4.60;;;3.20;;
57297;SDS011;43147;50.972;18.210;2023-05-10T09:15:03;5.50;;;2.70;;
57297;SDS011;43147;50.972;18.210;2023-05-10T09:17:29;4.20;;;3.20;;
57297;SDS011;43147;50.972;18.210;2023-05-10T09:20:02;3.70;;;2.60;;
57297;SDS011;43147;50.972;18.210;2023-05-10T09:25:12;5.40;;;2.30;;
57297;SDS011;43147;50.972;18.210;2023-05-10T09:27:40;4.40;;;2.20;;
57297;SDS011;43147;50.972;18.210;2023-05-10T09:30:07;4.90;;;2.30;;
57297;SDS011;43147;50.972;18.210;2023-05-10T09:32:40;5.30;;;2.80;;
57297;SDS011;43147;50.972;18.210;2023-05-10T09:35:17;6.20;;;2.80;;
57297;SDS011;43147;50.972;18.210;2023-05-10T09:37:45;4.60;;;2.70;;
57297;SDS011;43147;50.972;18.210;2023-05-10T09:40:15;4.00;;;2.70;;
57297;SDS011;43147;50.972;18.210;2023-05-10T09:43:06;3.40;;;2.60;;
57297;SDS011;43147;50.972;18.210;2023-05-10T09:45:33;3.30;;;2.60;;
57297;SDS011;43147;50.972;18.210;2023-05-10T09:48:00;7.80;;;2.80;;
57297;SDS011;43147;50.972;18.210;2023-05-10T09:50:27;3.60;;;2.90;;
57297;SDS011;43147;50.972;18.210;2023-05-10T09:52:58;5.80;;;3.20;;
57297;SDS011;43147;50.972;18.210;2023-05-10T09:58:07;11.40;;;2.80;;
57297;SDS011;43147;50.972;18.210;2023-05-10T10:00:36;2.70;;;2.30;;
57297;SDS011;43147;50.972;18.210;2023-05-10T10:03:03;8.40;;;3.00;;
57297;SDS011;43147;50.972;18.210;2023-05-10T10:05:32;3.40;;;2.40;;
57297;SDS011;43147;50.972;18.210;2023-05-10T10:08:00;3.00;;;2.60;;
57297;SDS011;43147;50.972;18.210;2023-05-10T10:10:28;3.00;;;2.60;;
57297;SDS011;43147;50.972;18.210;2023-05-10T10:12:54;3.30;;;2.20;;
57297;SDS011;43147;50.972;18.210;2023-05-10T10:15:20;6.00;;;2.40;;
57297;SDS011;43147;50.972;18.210;2023-05-10T10:17:47;4.70;;;2.10;;
57297;SDS011;43147;50.972;18.210;2023-05-10T10:20:14;7.10;;;2.20;;
57297;SDS011;43147;50.972;18.210;2023-05-10T10:22:40;6.50;;;2.20;;
57297;SDS011;43147;50.972;18.210;2023-05-10T10:25:07;3.40;;;2.00;;
57297;SDS011;43147;50.972;18.210;2023-05-10T10:35:41;14.70;;;3.10;;
57297;SDS011;43147;50.972;18.210;2023-05-10T10:38:08;12.50;;;2.40;;
57297;SDS011;43147;50.972;18.210;2023-05-10T10:40:34;5.70;;;2.20;;
57297;SDS011;43147;50.972;18.210;2023-05-10T10:48:40;4.80;;;2.10;;
57297;SDS011;43147;50.972;18.210;2023-05-10T10:51:07;4.20;;;2.30;;
57297;SDS011;43147;50.972;18.210;2023-05-10T10:53:32;10.80;;;2.50;;
57297;SDS011;43147;50.972;18.210;2023-05-10T10:56:04;6.10;;;2.20;;
57297;SDS011;43147;50.972;18.210;2023-05-10T10:58:40;4.00;;;2.30;;
57297;SDS011;43147;50.972;18.210;2023-05-10T11:01:19;4.50;;;2.40;;
57297;SDS011;43147;50.972;18.210;2023-05-10T11:08:59;4.40;;;2.20;;
57297;SDS011;43147;50.972;18.210;2023-05-10T11:11:31;2.90;;;2.30;;
57297;SDS011;43147;50.972;18.210;2023-05-10T11:13:56;6.00;;;1.80;;
57297;SDS011;43147;50.972;18.210;2023-05-10T11:16:28;5.80;;;1.90;;
57297;SDS011;43147;50.972;18.210;2023-05-10T11:19:07;3.10;;;1.90;;
57297;SDS011;43147;50.972;18.210;2023-05-10T11:21:44;3.50;;;2.00;;
57297;SDS011;43147;50.972;18.210;2023-05-10T11:24:21;6.10;;;2.30;;
57297;SDS011;43147;50.972;18.210;2023-05-10T11:26:52;4.00;;;1.90;;
57297;SDS011;43147;50.972;18.210;2023-05-10T11:29:18;5.90;;;1.80;;
57297;SDS011;43147;50.972;18.210;2023-05-10T11:31:45;5.00;;;1.80;;
57297;SDS011;43147;50.972;18.210;2023-05-10T11:34:13;5.50;;;2.10;;
57297;SDS011;43147;50.972;18.210;2023-05-10T11:36:50;4.60;;;2.50;;
57297;SDS011;43147;50.972;18.210;2023-05-10T11:39:17;6.10;;;2.30;;
57297;SDS011;43147;50.972;18.210;2023-05-10T11:41:42;4.40;;;2.70;;
57297;SDS011;43147;50.972;18.210;2023-05-10T11:44:08;3.50;;;2.40;;
57297;SDS011;43147;50.972;18.210;2023-05-10T11:46:34;5.90;;;2.60;;
57297;SDS011;43147;50.972;18.210;2023-05-10T11:49:01;3.80;;;1.90;;
57297;SDS011;43147;50.972;18.210;2023-05-10T11:51:29;4.40;;;2.50;;
57297;SDS011;43147;50.972;18.210;2023-05-10T11:53:55;3.20;;;2.50;;
57297;SDS011;43147;50.972;18.210;2023-05-10T11:56:22;3.10;;;2.20;;
57297;SDS011;43147;50.972;18.210;2023-05-10T11:58:52;3.10;;;2.50;;
57297;SDS011;43147;50.972;18.210;2023-05-10T12:01:23;4.20;;;2.50;;
57297;SDS011;43147;50.972;18.210;2023-05-10T12:03:50;3.30;;;2.10;;
57297;SDS011;43147;50.972;18.210;2023-05-10T12:06:18;2.90;;;2.00;;
57297;SDS011;43147;50.972;18.210;2023-05-10T12:08:45;6.60;;;2.20;;
57297;SDS011;43147;50.972;18.210;2023-05-10T12:11:18;7.20;;;2.70;;
57297;SDS011;43147;50.972;18.210;2023-05-10T12:13:44;4.10;;;2.10;;
57297;SDS011;43147;50.972;18.210;2023-05-10T12:16:12;3.50;;;2.60;;
57297;SDS011;43147;50.972;18.210;2023-05-10T12:18:40;6.30;;;2.20;;
57297;SDS011;43147;50.972;18.210;2023-05-10T12:21:06;9.20;;;2.60;;
57297;SDS011;43147;50.972;18.210;2023-05-10T12:23:32;5.60;;;2.30;;
57297;SDS011;43147;50.972;18.210;2023-05-10T12:26:02;18.00;;;3.50;;
57297;SDS011;43147;50.972;18.210;2023-05-10T12:28:32;7.00;;;2.70;;
57297;SDS011;43147;50.972;18.210;2023-05-10T12:31:01;2.30;;;2.00;;
57297;SDS011;43147;50.972;18.210;2023-05-10T12:33:27;3.80;;;2.10;;
57297;SDS011;43147;50.972;18.210;2023-05-10T12:36:02;11.60;;;2.80;;
57297;SDS011;43147;50.972;18.210;2023-05-10T12:38:34;3.90;;;2.30;;
57297;SDS011;43147;50.972;18.210;2023-05-10T12:41:03;4.20;;;2.70;;
57297;SDS011;43147;50.972;18.210;2023-05-10T12:43:34;4.00;;;2.10;;
57297;SDS011;43147;50.972;18.210;2023-05-10T12:46:10;4.90;;;1.90;;
57297;SDS011;43147;50.972;18.210;2023-05-10T12:48:37;2.60;;;1.80;;
57297;SDS011;43147;50.972;18.210;2023-05-10T12:51:03;4.10;;;2.70;;
57297;SDS011;43147;50.972;18.210;2023-05-10T12:53:30;9.30;;;3.10;;
57297;SDS011;43147;50.972;18.210;2023-05-10T12:55:56;4.60;;;2.10;;
57297;SDS011;43147;50.972;18.210;2023-05-10T12:58:22;12.60;;;3.10;;
57297;SDS011;43147;50.972;18.210;2023-05-10T13:00:47;16.10;;;2.90;;
57297;SDS011;43147;50.972;18.210;2023-05-10T13:03:13;13.20;;;3.10;;
57297;SDS011;43147;50.972;18.210;2023-05-10T13:05:40;3.80;;;2.10;;
57297;SDS011;43147;50.972;18.210;2023-05-10T13:08:06;2.60;;;2.20;;
57297;SDS011;43147;50.972;18.210;2023-05-10T13:10:34;5.20;;;2.60;;
57297;SDS011;43147;50.972;18.210;2023-05-10T13:13:00;7.30;;;2.00;;
57297;SDS011;43147;50.972;18.210;2023-05-10T13:15:26;3.60;;;1.90;;
57297;SDS011;43147;50.972;18.210;2023-05-10T13:17:52;2.50;;;2.00;;
57297;SDS011;43147;50.972;18.210;2023-05-10T13:20:18;7.30;;;2.50;;
57297;SDS011;43147;50.972;18.210;2023-05-10T13:22:44;4.90;;;2.40;;
57297;SDS011;43147;50.972;18.210;2023-05-10T13:25:11;5.30;;;2.30;;
57297;SDS011;43147;50.972;18.210;2023-05-10T13:27:40;5.50;;;2.20;;
57297;SDS011;43147;50.972;18.210;2023-05-10T13:30:06;3.60;;;2.50;;
57297;SDS011;43147;50.972;18.210;2023-05-10T13:32:33;4.40;;;2.30;;
57297;SDS011;43147;50.972;18.210;2023-05-10T13:34:58;7.70;;;2.70;;
57297;SDS011;43147;50.972;18.210;2023-05-10T13:37:24;7.60;;;2.60;;
57297;SDS011;43147;50.972;18.210;2023-05-10T13:39:50;2.80;;;2.30;;
57297;SDS011;43147;50.972;18.210;2023-05-10T13:42:15;3.70;;;2.60;;
57297;SDS011;43147;50.972;18.210;2023-05-10T13:44:43;3.90;;;2.20;;
57297;SDS011;43147;50.972;18.210;2023-05-10T13:47:08;3.40;;;2.60;;
57297;SDS011;43147;50.972;18.210;2023-05-10T13:49:35;4.20;;;2.10;;
57297;SDS011;43147;50.972;18.210;2023-05-10T13:52:01;4.50;;;2.50;;
57297;SDS011;43147;50.972;18.210;2023-05-10T13:54:33;3.50;;;2.30;;
57297;SDS011;43147;50.972;18.210;2023-05-10T13:56:59;2.60;;;2.40;;
57297;SDS011;43147;50.972;18.210;2023-05-10T13:59:25;6.80;;;2.40;;
57297;SDS011;43147;50.972;18.210;2023-05-10T14:01:51;7.20;;;2.30;;
57297;SDS011;43147;50.972;18.210;2023-05-10T14:04:16;2.70;;;2.30;;
57297;SDS011;43147;50.972;18.210;2023-05-10T14:06:42;9.80;;;2.80;;
57297;SDS011;43147;50.972;18.210;2023-05-10T14:09:07;4.30;;;2.80;;
57297;SDS011;43147;50.972;18.210;2023-05-10T14:11:33;5.80;;;2.40;;
57297;SDS011;43147;50.972;18.210;2023-05-10T14:13:58;5.30;;;2.70;;
57297;SDS011;43147;50.972;18.210;2023-05-10T14:16:24;5.10;;;2.40;;
57297;SDS011;43147;50.972;18.210;2023-05-10T14:18:50;3.90;;;2.90;;
57297;SDS011;43147;50.972;18.210;2023-05-10T14:21:15;5.90;;;2.80;;
57297;SDS011;43147;50.972;18.210;2023-05-10T14:23:41;3.50;;;3.10;;
57297;SDS011;43147;50.972;18.210;2023-05-10T14:26:06;5.10;;;2.80;;
57297;SDS011;43147;50.972;18.210;2023-05-10T14:28:33;5.80;;;2.60;;
57297;SDS011;43147;50.972;18.210;2023-05-10T14:30:58;5.80;;;2.80;;
57297;SDS011;43147;50.972;18.210;2023-05-10T14:33:24;4.40;;;2.80;;
57297;SDS011;43147;50.972;18.210;2023-05-10T14:35:50;7.50;;;2.80;;
57297;SDS011;43147;50.972;18.210;2023-05-10T14:38:19;6.40;;;2.40;;
57297;SDS011;43147;50.972;18.210;2023-05-10T14:40:44;3.20;;;2.40;;
57297;SDS011;43147;50.972;18.210;2023-05-10T14:43:10;5.40;;;3.10;;
57297;SDS011;43147;50.972;18.210;2023-05-10T14:45:35;4.60;;;2.70;;
57297;SDS011;43147;50.972;18.210;2023-05-10T14:48:01;4.90;;;2.60;;
57297;SDS011;43147;50.972;18.210;2023-05-10T14:50:30;6.90;;;3.10;;
57297;SDS011;43147;50.972;18.210;2023-05-10T14:52:57;4.90;;;3.20;;
57297;SDS011;43147;50.972;18.210;2023-05-10T14:55:24;5.40;;;2.90;;
57297;SDS011;43147;50.972;18.210;2023-05-10T14:57:49;4.60;;;2.50;;
57297;SDS011;43147;50.972;18.210;2023-05-10T15:00:15;4.40;;;2.80;;
57297;SDS011;43147;50.972;18.210;2023-05-10T15:02:42;3.80;;;2.90;;
57297;SDS011;43147;50.972;18.210;2023-05-10T15:05:07;2.90;;;2.40;;
57297;SDS011;43147;50.972;18.210;2023-05-10T15:07:33;5.20;;;3.00;;
57297;SDS011;43147;50.972;18.210;2023-05-10T15:10:02;4.00;;;2.60;;